sensor_id;sensor_type;location;lat;lon;timestamp;P1;durP1;ratioP1;P2;durP2;ratioP2
80694;SDS011;70059;42.702;23.312;2024-01-16T00:00:07;84.35;;;35.97;;
80694;SDS011;70059;42.702;23.312;2024-01-16T00:02:34;53.40;;;26.45;;
80694;SDS011;70059;42.702;23.312;2024-01-16T00:04:59;43.85;;;22.92;;
80694;SDS011;70059;42.702;23.312;2024-01-16T00:07:32;35.30;;;19.77;;
80694;SDS011;70059;42.702;23.312;2024-01-16T00:10:00;33.38;;;19.83;;
80694;SDS011;70059;42.702;23.312;2024-01-16T00:12:26;49.72;;;24.95;;
80694;SDS011;70059;42.702;23.312;2024-01-16T00:14:51;61.33;;;27.30;;
80694;SDS011;70059;42.702;23.312;2024-01-16T00:17:17;44.28;;;22.05;;
80694;SDS011;70059;42.702;23.312;2024-01-16T00:19:42;35.65;;;19.40;;
80694;SDS011;70059;42.702;23.312;2024-01-16T00:22:08;41.40;;;20.67;;
80694;SDS011;70059;42.702;23.312;2024-01-16T00:24:34;46.70;;;23.33;;
80694;SDS011;70059;42.702;23.312;2024-01-16T00:27:00;41.40;;;21.65;;
80694;SDS011;70059;42.702;23.312;2024-01-16T00:29:25;36.50;;;21.27;;
80694;SDS011;70059;42.702;23.312;2024-01-16T00:31:51;50.55;;;23.30;;
80694;SDS011;70059;42.702;23.312;2024-01-16T00:34:16;42.45;;;22.27;;
80694;SDS011;70059;42.702;23.312;2024-01-16T00:36:42;40.72;;;22.88;;
80694;SDS011;70059;42.702;23.312;2024-01-16T00:39:08;32.15;;;19.10;;
80694;SDS011;70059;42.702;23.312;2024-01-16T00:41:34;34.55;;;19.45;;
80694;SDS011;70059;42.702;23.312;2024-01-16T00:43:59;33.85;;;19.02;;
80694;SDS011;70059;42.702;23.312;2024-01-16T00:46:32;35.08;;;18.98;;
80694;SDS011;70059;42.702;23.312;2024-01-16T00:48:58;43.25;;;21.67;;
80694;SDS011;70059;42.702;23.312;2024-01-16T00:51:23;88.57;;;36.63;;
80694;SDS011;70059;42.702;23.312;2024-01-16T00:53:49;48.28;;;25.10;;
80694;SDS011;70059;42.702;23.312;2024-01-16T00:56:14;33.58;;;19.38;;
80694;SDS011;70059;42.702;23.312;2024-01-16T00:58:40;54.17;;;26.67;;
80694;SDS011;70059;42.702;23.312;2024-01-16T01:01:06;59.08;;;28.73;;
80694;SDS011;70059;42.702;23.312;2024-01-16T01:03:38;66.45;;;29.95;;
80694;SDS011;70059;42.702;23.312;2024-01-16T01:06:04;43.03;;;23.02;;
80694;SDS011;70059;42.702;23.312;2024-01-16T01:08:30;59.90;;;28.42;;
80694;SDS011;70059;42.702;23.312;2024-01-16T01:13:23;66.13;;;31.73;;
80694;SDS011;70059;42.702;23.312;2024-01-16T01:15:50;66.32;;;29.65;;
80694;SDS011;70059;42.702;23.312;2024-01-16T01:18:16;40.17;;;22.30;;
80694;SDS011;70059;42.702;23.312;2024-01-16T01:20:41;38.50;;;20.98;;
80694;SDS011;70059;42.702;23.312;2024-01-16T01:23:07;33.47;;;17.52;;
80694;SDS011;70059;42.702;23.312;2024-01-16T01:25:33;24.85;;;13.82;;
80694;SDS011;70059;42.702;23.312;2024-01-16T01:27:59;21.95;;;12.45;;
80694;SDS011;70059;42.702;23.312;2024-01-16T01:30:25;21.55;;;13.88;;
80694;SDS011;70059;42.702;23.312;2024-01-16T01:32:51;21.75;;;13.27;;
80694;SDS011;70059;42.702;23.312;2024-01-16T01:35:17;23.17;;;14.70;;
80694;SDS011;70059;42.702;23.312;2024-01-16T01:37:44;23.30;;;15.27;;
80694;SDS011;70059;42.702;23.312;2024-01-16T01:40:10;19.17;;;12.80;;
80694;SDS011;70059;42.702;23.312;2024-01-16T01:42:37;22.63;;;14.05;;
80694;SDS011;70059;42.702;23.312;2024-01-16T01:45:05;19.63;;;13.23;;
80694;SDS011;70059;42.702;23.312;2024-01-16T01:47:32;20.27;;;12.23;;
80694;SDS011;70059;42.702;23.312;2024-01-16T01:49:57;20.48;;;13.15;;
80694;SDS011;70059;42.702;23.312;2024-01-16T01:52:24;20.00;;;13.57;;
80694;SDS011;70059;42.702;23.312;2024-01-16T01:54:50;20.75;;;12.73;;
80694;SDS011;70059;42.702;23.312;2024-01-16T01:57:16;14.93;;;10.73;;
80694;SDS011;70059;42.702;23.312;2024-01-16T01:59:43;16.73;;;11.63;;
80694;SDS011;70059;42.702;23.312;2024-01-16T02:02:09;17.75;;;12.45;;
80694;SDS011;70059;42.702;23.312;2024-01-16T02:04:36;18.60;;;12.07;;
80694;SDS011;70059;42.702;23.312;2024-01-16T02:07:03;34.53;;;16.38;;
80694;SDS011;70059;42.702;23.312;2024-01-16T02:09:29;28.88;;;15.30;;
80694;SDS011;70059;42.702;23.312;2024-01-16T02:11:56;29.60;;;15.23;;
80694;SDS011;70059;42.702;23.312;2024-01-16T02:14:21;50.58;;;20.10;;
80694;SDS011;70059;42.702;23.312;2024-01-16T02:16:47;57.83;;;22.67;;
80694;SDS011;70059;42.702;23.312;2024-01-16T02:19:12;22.48;;;13.40;;
80694;SDS011;70059;42.702;23.312;2024-01-16T02:21:39;24.30;;;13.80;;
80694;SDS011;70059;42.702;23.312;2024-01-16T02:24:17;48.20;;;20.50;;
80694;SDS011;70059;42.702;23.312;2024-01-16T02:26:43;36.38;;;17.33;;
80694;SDS011;70059;42.702;23.312;2024-01-16T02:29:09;23.67;;;14.60;;
80694;SDS011;70059;42.702;23.312;2024-01-16T02:31:35;39.50;;;18.77;;
80694;SDS011;70059;42.702;23.312;2024-01-16T02:34:01;31.25;;;16.30;;
80694;SDS011;70059;42.702;23.312;2024-01-16T02:36:29;21.77;;;13.40;;
80694;SDS011;70059;42.702;23.312;2024-01-16T02:38:55;23.50;;;13.85;;
80694;SDS011;70059;42.702;23.312;2024-01-16T02:41:21;22.33;;;13.95;;
80694;SDS011;70059;42.702;23.312;2024-01-16T02:43:47;19.15;;;12.80;;
80694;SDS011;70059;42.702;23.312;2024-01-16T02:46:13;20.13;;;13.20;;
80694;SDS011;70059;42.702;23.312;2024-01-16T02:48:39;18.65;;;12.38;;
80694;SDS011;70059;42.702;23.312;2024-01-16T02:51:05;20.42;;;13.95;;
80694;SDS011;70059;42.702;23.312;2024-01-16T02:53:31;21.02;;;14.15;;
80694;SDS011;70059;42.702;23.312;2024-01-16T02:55:56;18.65;;;12.75;;
80694;SDS011;70059;42.702;23.312;2024-01-16T02:58:29;19.80;;;12.65;;
80694;SDS011;70059;42.702;23.312;2024-01-16T03:00:55;20.42;;;13.38;;
80694;SDS011;70059;42.702;23.312;2024-01-16T03:03:22;30.52;;;16.58;;
80694;SDS011;70059;42.702;23.312;2024-01-16T03:05:49;51.45;;;21.30;;
80694;SDS011;70059;42.702;23.312;2024-01-16T03:08:15;37.85;;;18.85;;
80694;SDS011;70059;42.702;23.312;2024-01-16T03:10:41;19.02;;;12.25;;
80694;SDS011;70059;42.702;23.312;2024-01-16T03:13:06;15.20;;;10.27;;
80694;SDS011;70059;42.702;23.312;2024-01-16T03:15:32;8.48;;;6.90;;
80694;SDS011;70059;42.702;23.312;2024-01-16T03:18:01;8.80;;;7.35;;
80694;SDS011;70059;42.702;23.312;2024-01-16T03:20:27;8.00;;;7.20;;
80694;SDS011;70059;42.702;23.312;2024-01-16T03:22:53;9.95;;;8.05;;
80694;SDS011;70059;42.702;23.312;2024-01-16T03:25:19;8.18;;;7.38;;
80694;SDS011;70059;42.702;23.312;2024-01-16T03:27:46;10.30;;;8.73;;
80694;SDS011;70059;42.702;23.312;2024-01-16T03:30:12;10.38;;;8.88;;
80694;SDS011;70059;42.702;23.312;2024-01-16T03:32:38;9.70;;;8.27;;
80694;SDS011;70059;42.702;23.312;2024-01-16T03:35:04;9.73;;;8.77;;
80694;SDS011;70059;42.702;23.312;2024-01-16T03:37:31;9.10;;;8.20;;
80694;SDS011;70059;42.702;23.312;2024-01-16T03:39:57;9.50;;;8.60;;
80694;SDS011;70059;42.702;23.312;2024-01-16T03:42:23;9.75;;;8.75;;
80694;SDS011;70059;42.702;23.312;2024-01-16T03:44:49;9.85;;;8.90;;
80694;SDS011;70059;42.702;23.312;2024-01-16T03:47:15;9.00;;;8.13;;
80694;SDS011;70059;42.702;23.312;2024-01-16T03:49:41;9.73;;;8.73;;
80694;SDS011;70059;42.702;23.312;2024-01-16T03:52:07;9.40;;;8.60;;
80694;SDS011;70059;42.702;23.312;2024-01-16T03:54:33;9.15;;;8.32;;
80694;SDS011;70059;42.702;23.312;2024-01-16T03:56:58;9.05;;;8.25;;
80694;SDS011;70059;42.702;23.312;2024-01-16T03:59:24;8.23;;;7.47;;
80694;SDS011;70059;42.702;23.312;2024-01-16T04:01:50;8.15;;;7.35;;
80694;SDS011;70059;42.702;23.312;2024-01-16T04:04:15;8.23;;;7.53;;
80694;SDS011;70059;42.702;23.312;2024-01-16T04:06:41;8.18;;;7.38;;
80694;SDS011;70059;42.702;23.312;2024-01-16T04:09:07;8.40;;;7.70;;
80694;SDS011;70059;42.702;23.312;2024-01-16T04:11:34;7.63;;;6.93;;
80694;SDS011;70059;42.702;23.312;2024-01-16T04:14:00;7.15;;;6.55;;
80694;SDS011;70059;42.702;23.312;2024-01-16T04:16:27;7.30;;;6.70;;
80694;SDS011;70059;42.702;23.312;2024-01-16T04:18:53;6.93;;;6.32;;
80694;SDS011;70059;42.702;23.312;2024-01-16T04:21:18;6.45;;;5.85;;
80694;SDS011;70059;42.702;23.312;2024-01-16T04:23:44;6.90;;;6.30;;
80694;SDS011;70059;42.702;23.312;2024-01-16T04:26:10;7.40;;;6.80;;
80694;SDS011;70059;42.702;23.312;2024-01-16T04:28:35;6.07;;;5.47;;
80694;SDS011;70059;42.702;23.312;2024-01-16T04:31:04;6.70;;;6.10;;
80694;SDS011;70059;42.702;23.312;2024-01-16T04:33:30;5.38;;;4.90;;
80694;SDS011;70059;42.702;23.312;2024-01-16T04:35:56;6.45;;;5.95;;
80694;SDS011;70059;42.702;23.312;2024-01-16T04:38:21;6.13;;;5.63;;
80694;SDS011;70059;42.702;23.312;2024-01-16T04:40:48;6.10;;;5.60;;
80694;SDS011;70059;42.702;23.312;2024-01-16T04:43:14;5.93;;;5.53;;
80694;SDS011;70059;42.702;23.312;2024-01-16T04:45:40;6.32;;;5.72;;
80694;SDS011;70059;42.702;23.312;2024-01-16T04:48:05;6.72;;;6.22;;
80694;SDS011;70059;42.702;23.312;2024-01-16T04:50:33;6.72;;;6.13;;
80694;SDS011;70059;42.702;23.312;2024-01-16T04:52:59;7.10;;;6.50;;
80694;SDS011;70059;42.702;23.312;2024-01-16T04:55:26;8.43;;;7.63;;
80694;SDS011;70059;42.702;23.312;2024-01-16T04:57:55;6.50;;;5.90;;
80694;SDS011;70059;42.702;23.312;2024-01-16T05:00:22;6.40;;;5.80;;
80694;SDS011;70059;42.702;23.312;2024-01-16T05:02:48;6.45;;;5.90;;
80694;SDS011;70059;42.702;23.312;2024-01-16T05:05:14;6.18;;;5.68;;
80694;SDS011;70059;42.702;23.312;2024-01-16T05:07:41;6.10;;;5.50;;
80694;SDS011;70059;42.702;23.312;2024-01-16T05:10:09;6.30;;;5.80;;
80694;SDS011;70059;42.702;23.312;2024-01-16T05:12:41;6.03;;;5.53;;
80694;SDS011;70059;42.702;23.312;2024-01-16T05:24:51;6.13;;;5.60;;
80694;SDS011;70059;42.702;23.312;2024-01-16T05:39:58;6.25;;;5.65;;
80694;SDS011;70059;42.702;23.312;2024-01-16T05:42:32;6.30;;;5.88;;
80694;SDS011;70059;42.702;23.312;2024-01-16T05:44:58;5.70;;;5.20;;
80694;SDS011;70059;42.702;23.312;2024-01-16T05:47:23;5.68;;;5.28;;
80694;SDS011;70059;42.702;23.312;2024-01-16T05:49:53;5.90;;;5.40;;
80694;SDS011;70059;42.702;23.312;2024-01-16T05:52:20;5.60;;;5.10;;
80694;SDS011;70059;42.702;23.312;2024-01-16T05:54:46;5.25;;;4.85;;
80694;SDS011;70059;42.702;23.312;2024-01-16T05:57:12;5.72;;;5.22;;
80694;SDS011;70059;42.702;23.312;2024-01-16T05:59:37;6.35;;;5.85;;
80694;SDS011;70059;42.702;23.312;2024-01-16T06:02:03;6.53;;;5.95;;
80694;SDS011;70059;42.702;23.312;2024-01-16T06:04:29;7.25;;;6.15;;
80694;SDS011;70059;42.702;23.312;2024-01-16T06:06:55;6.30;;;5.70;;
80694;SDS011;70059;42.702;23.312;2024-01-16T06:09:27;6.60;;;6.03;;
80694;SDS011;70059;42.702;23.312;2024-01-16T06:11:53;6.53;;;5.82;;
80694;SDS011;70059;42.702;23.312;2024-01-16T06:14:19;7.72;;;5.90;;
80694;SDS011;70059;42.702;23.312;2024-01-16T06:16:47;6.55;;;5.95;;
80694;SDS011;70059;42.702;23.312;2024-01-16T06:19:13;6.50;;;5.90;;
80694;SDS011;70059;42.702;23.312;2024-01-16T06:21:39;10.80;;;8.13;;
80694;SDS011;70059;42.702;23.312;2024-01-16T06:24:05;6.35;;;5.85;;
80694;SDS011;70059;42.702;23.312;2024-01-16T06:26:31;6.82;;;6.22;;
80694;SDS011;70059;42.702;23.312;2024-01-16T06:28:58;7.15;;;6.53;;
80694;SDS011;70059;42.702;23.312;2024-01-16T06:31:30;5.88;;;5.25;;
80694;SDS011;70059;42.702;23.312;2024-01-16T06:33:56;6.28;;;5.78;;
80694;SDS011;70059;42.702;23.312;2024-01-16T06:36:22;5.78;;;5.13;;
80694;SDS011;70059;42.702;23.312;2024-01-16T06:38:47;6.80;;;6.10;;
80694;SDS011;70059;42.702;23.312;2024-01-16T06:41:13;5.68;;;5.18;;
80694;SDS011;70059;42.702;23.312;2024-01-16T06:43:39;5.75;;;5.20;;
80694;SDS011;70059;42.702;23.312;2024-01-16T06:46:04;6.40;;;5.80;;
80694;SDS011;70059;42.702;23.312;2024-01-16T06:48:30;6.15;;;5.57;;
80694;SDS011;70059;42.702;23.312;2024-01-16T06:50:56;5.55;;;5.03;;
80694;SDS011;70059;42.702;23.312;2024-01-16T06:53:22;5.90;;;5.10;;
80694;SDS011;70059;42.702;23.312;2024-01-16T06:55:48;5.72;;;5.28;;
80694;SDS011;70059;42.702;23.312;2024-01-16T06:58:14;6.57;;;5.95;;
80694;SDS011;70059;42.702;23.312;2024-01-16T07:00:39;6.43;;;5.95;;
80694;SDS011;70059;42.702;23.312;2024-01-16T07:03:06;6.97;;;6.43;;
80694;SDS011;70059;42.702;23.312;2024-01-16T07:05:32;7.03;;;6.47;;
80694;SDS011;70059;42.702;23.312;2024-01-16T07:08:04;7.70;;;6.63;;
80694;SDS011;70059;42.702;23.312;2024-01-16T07:10:30;8.60;;;7.78;;
80694;SDS011;70059;42.702;23.312;2024-01-16T07:12:56;7.28;;;6.32;;
80694;SDS011;70059;42.702;23.312;2024-01-16T07:15:22;6.28;;;5.68;;
80694;SDS011;70059;42.702;23.312;2024-01-16T07:17:54;7.07;;;6.45;;
80694;SDS011;70059;42.702;23.312;2024-01-16T07:20:20;6.97;;;6.28;;
80694;SDS011;70059;42.702;23.312;2024-01-16T07:22:46;7.80;;;6.35;;
80694;SDS011;70059;42.702;23.312;2024-01-16T07:25:11;6.95;;;6.35;;
80694;SDS011;70059;42.702;23.312;2024-01-16T07:27:37;6.80;;;6.10;;
80694;SDS011;70059;42.702;23.312;2024-01-16T07:30:06;6.90;;;6.20;;
80694;SDS011;70059;42.702;23.312;2024-01-16T07:32:32;7.40;;;6.68;;
80694;SDS011;70059;42.702;23.312;2024-01-16T07:34:58;7.00;;;6.40;;
80694;SDS011;70059;42.702;23.312;2024-01-16T07:37:25;7.30;;;6.45;;
80694;SDS011;70059;42.702;23.312;2024-01-16T07:39:51;5.97;;;5.38;;
80694;SDS011;70059;42.702;23.312;2024-01-16T07:42:17;8.20;;;7.18;;
80694;SDS011;70059;42.702;23.312;2024-01-16T07:44:42;7.38;;;6.78;;
80694;SDS011;70059;42.702;23.312;2024-01-16T07:47:08;7.20;;;6.50;;
80694;SDS011;70059;42.702;23.312;2024-01-16T07:49:34;9.55;;;7.25;;
80694;SDS011;70059;42.702;23.312;2024-01-16T07:51:59;10.25;;;6.30;;
80694;SDS011;70059;42.702;23.312;2024-01-16T07:54:25;7.80;;;6.43;;
80694;SDS011;70059;42.702;23.312;2024-01-16T07:56:51;9.50;;;7.47;;
80694;SDS011;70059;42.702;23.312;2024-01-16T07:59:17;8.45;;;7.55;;
80694;SDS011;70059;42.702;23.312;2024-01-16T08:01:43;9.68;;;7.68;;
80694;SDS011;70059;42.702;23.312;2024-01-16T08:04:09;7.82;;;6.97;;
80694;SDS011;70059;42.702;23.312;2024-01-16T08:06:35;10.25;;;6.78;;
80694;SDS011;70059;42.702;23.312;2024-01-16T08:09:01;8.13;;;7.32;;
80694;SDS011;70059;42.702;23.312;2024-01-16T08:11:27;7.07;;;6.35;;
80694;SDS011;70059;42.702;23.312;2024-01-16T08:13:53;8.68;;;5.95;;
80694;SDS011;70059;42.702;23.312;2024-01-16T08:16:25;11.77;;;7.47;;
80694;SDS011;70059;42.702;23.312;2024-01-16T08:18:51;8.15;;;7.13;;
80694;SDS011;70059;42.702;23.312;2024-01-16T08:21:18;10.07;;;7.03;;
80694;SDS011;70059;42.702;23.312;2024-01-16T08:23:43;8.48;;;6.82;;
80694;SDS011;70059;42.702;23.312;2024-01-16T08:26:10;7.47;;;6.30;;
80694;SDS011;70059;42.702;23.312;2024-01-16T08:28:35;6.80;;;5.47;;
80694;SDS011;70059;42.702;23.312;2024-01-16T08:31:01;10.38;;;6.13;;
80694;SDS011;70059;42.702;23.312;2024-01-16T08:33:27;7.95;;;6.47;;
80694;SDS011;70059;42.702;23.312;2024-01-16T08:35:52;8.07;;;6.90;;
80694;SDS011;70059;42.702;23.312;2024-01-16T08:38:18;7.43;;;6.60;;
80694;SDS011;70059;42.702;23.312;2024-01-16T08:40:44;7.15;;;6.47;;
80694;SDS011;70059;42.702;23.312;2024-01-16T08:43:09;7.28;;;5.63;;
80694;SDS011;70059;42.702;23.312;2024-01-16T08:45:35;8.35;;;6.28;;
80694;SDS011;70059;42.702;23.312;2024-01-16T08:48:07;6.90;;;6.20;;
80694;SDS011;70059;42.702;23.312;2024-01-16T08:50:33;7.93;;;6.63;;
80694;SDS011;70059;42.702;23.312;2024-01-16T08:52:58;9.50;;;7.70;;
80694;SDS011;70059;42.702;23.312;2024-01-16T08:55:24;9.88;;;7.32;;
80694;SDS011;70059;42.702;23.312;2024-01-16T08:57:50;9.40;;;7.65;;
80694;SDS011;70059;42.702;23.312;2024-01-16T09:00:15;8.93;;;6.97;;
80694;SDS011;70059;42.702;23.312;2024-01-16T09:02:48;7.78;;;6.55;;
80694;SDS011;70059;42.702;23.312;2024-01-16T09:05:14;6.70;;;6.10;;
80694;SDS011;70059;42.702;23.312;2024-01-16T09:07:41;6.75;;;6.03;;
80694;SDS011;70059;42.702;23.312;2024-01-16T09:10:06;8.60;;;7.13;;
80694;SDS011;70059;42.702;23.312;2024-01-16T09:12:33;10.00;;;6.18;;
80694;SDS011;70059;42.702;23.312;2024-01-16T09:14:58;8.75;;;6.43;;
80694;SDS011;70059;42.702;23.312;2024-01-16T09:17:24;9.88;;;6.43;;
80694;SDS011;70059;42.702;23.312;2024-01-16T09:19:52;11.45;;;7.15;;
80694;SDS011;70059;42.702;23.312;2024-01-16T09:22:18;7.53;;;6.70;;
80694;SDS011;70059;42.702;23.312;2024-01-16T09:24:44;7.45;;;6.55;;
80694;SDS011;70059;42.702;23.312;2024-01-16T09:27:09;7.28;;;6.60;;
80694;SDS011;70059;42.702;23.312;2024-01-16T09:29:35;7.30;;;6.60;;
80694;SDS011;70059;42.702;23.312;2024-01-16T09:32:07;5.82;;;5.30;;
80694;SDS011;70059;42.702;23.312;2024-01-16T09:34:34;6.90;;;6.20;;
80694;SDS011;70059;42.702;23.312;2024-01-16T09:36:59;7.15;;;5.93;;
80694;SDS011;70059;42.702;23.312;2024-01-16T09:39:28;7.80;;;7.10;;
80694;SDS011;70059;42.702;23.312;2024-01-16T09:41:59;6.07;;;5.57;;
80694;SDS011;70059;42.702;23.312;2024-01-16T09:44:28;7.88;;;7.10;;
80694;SDS011;70059;42.702;23.312;2024-01-16T09:46:54;6.70;;;6.10;;
80694;SDS011;70059;42.702;23.312;2024-01-16T09:49:23;6.63;;;6.13;;
80694;SDS011;70059;42.702;23.312;2024-01-16T09:51:49;6.80;;;6.03;;
80694;SDS011;70059;42.702;23.312;2024-01-16T09:54:15;6.70;;;6.10;;
80694;SDS011;70059;42.702;23.312;2024-01-16T09:56:44;5.47;;;5.05;;
80694;SDS011;70059;42.702;23.312;2024-01-16T09:59:15;7.13;;;6.57;;
80694;SDS011;70059;42.702;23.312;2024-01-16T10:01:50;7.68;;;6.97;;
80694;SDS011;70059;42.702;23.312;2024-01-16T10:04:18;6.82;;;6.28;;
80694;SDS011;70059;42.702;23.312;2024-01-16T10:06:45;7.53;;;6.45;;
80694;SDS011;70059;42.702;23.312;2024-01-16T10:11:42;7.82;;;7.07;;
80694;SDS011;70059;42.702;23.312;2024-01-16T10:14:16;8.43;;;6.63;;
80694;SDS011;70059;42.702;23.312;2024-01-16T10:16:58;7.35;;;6.65;;
80694;SDS011;70059;42.702;23.312;2024-01-16T10:19:26;8.02;;;5.97;;
80694;SDS011;70059;42.702;23.312;2024-01-16T10:21:52;8.07;;;6.60;;
80694;SDS011;70059;42.702;23.312;2024-01-16T10:24:25;7.35;;;6.65;;
80694;SDS011;70059;42.702;23.312;2024-01-16T10:26:57;8.90;;;7.40;;
80694;SDS011;70059;42.702;23.312;2024-01-16T10:29:25;11.00;;;8.10;;
80694;SDS011;70059;42.702;23.312;2024-01-16T10:31:59;13.73;;;6.90;;
80694;SDS011;70059;42.702;23.312;2024-01-16T10:34:26;7.78;;;7.18;;
80694;SDS011;70059;42.702;23.312;2024-01-16T10:36:58;7.60;;;6.78;;
80694;SDS011;70059;42.702;23.312;2024-01-16T10:39:26;7.55;;;6.95;;
80694;SDS011;70059;42.702;23.312;2024-01-16T10:41:58;7.38;;;6.88;;
80694;SDS011;70059;42.702;23.312;2024-01-16T10:44:25;8.02;;;7.00;;
80694;SDS011;70059;42.702;23.312;2024-01-16T10:46:52;7.65;;;7.05;;
80694;SDS011;70059;42.702;23.312;2024-01-16T10:49:40;6.60;;;5.90;;
80694;SDS011;70059;42.702;23.312;2024-01-16T10:52:06;6.50;;;5.88;;
80694;SDS011;70059;42.702;23.312;2024-01-16T10:54:37;6.80;;;6.28;;
80694;SDS011;70059;42.702;23.312;2024-01-16T10:57:07;6.13;;;5.55;;
80694;SDS011;70059;42.702;23.312;2024-01-16T10:59:40;7.53;;;5.97;;
80694;SDS011;70059;42.702;23.312;2024-01-16T11:02:20;6.90;;;6.40;;
80694;SDS011;70059;42.702;23.312;2024-01-16T11:04:49;7.43;;;6.82;;
80694;SDS011;70059;42.702;23.312;2024-01-16T11:07:18;8.82;;;7.93;;
80694;SDS011;70059;42.702;23.312;2024-01-16T11:09:44;7.50;;;6.80;;
80694;SDS011;70059;42.702;23.312;2024-01-16T11:12:10;6.82;;;6.05;;
80694;SDS011;70059;42.702;23.312;2024-01-16T11:14:41;7.95;;;7.13;;
80694;SDS011;70059;42.702;23.312;2024-01-16T11:17:15;7.32;;;6.70;;
80694;SDS011;70059;42.702;23.312;2024-01-16T11:19:43;8.35;;;7.43;;
80694;SDS011;70059;42.702;23.312;2024-01-16T11:27:21;8.52;;;7.43;;
80694;SDS011;70059;42.702;23.312;2024-01-16T11:34:52;9.45;;;7.30;;
80694;SDS011;70059;42.702;23.312;2024-01-16T11:37:33;8.55;;;7.30;;
80694;SDS011;70059;42.702;23.312;2024-01-16T11:42:45;8.60;;;7.80;;
80694;SDS011;70059;42.702;23.312;2024-01-16T11:48:11;9.45;;;8.57;;
80694;SDS011;70059;42.702;23.312;2024-01-16T11:50:41;9.30;;;7.88;;
80694;SDS011;70059;42.702;23.312;2024-01-16T11:53:07;11.15;;;7.72;;
80694;SDS011;70059;42.702;23.312;2024-01-16T12:01:05;7.70;;;6.90;;
80694;SDS011;70059;42.702;23.312;2024-01-16T12:03:32;8.80;;;7.88;;
80694;SDS011;70059;42.702;23.312;2024-01-16T12:06:04;8.52;;;7.05;;
80694;SDS011;70059;42.702;23.312;2024-01-16T12:08:31;9.07;;;7.75;;
80694;SDS011;70059;42.702;23.312;2024-01-16T12:10:57;7.55;;;6.75;;
80694;SDS011;70059;42.702;23.312;2024-01-16T12:13:30;8.95;;;8.05;;
80694;SDS011;70059;42.702;23.312;2024-01-16T12:16:00;11.82;;;7.90;;
80694;SDS011;70059;42.702;23.312;2024-01-16T12:18:26;10.50;;;7.78;;
80694;SDS011;70059;42.702;23.312;2024-01-16T12:20:52;7.85;;;7.05;;
80694;SDS011;70059;42.702;23.312;2024-01-16T12:23:17;9.20;;;6.97;;
80694;SDS011;70059;42.702;23.312;2024-01-16T12:25:45;8.60;;;7.40;;
80694;SDS011;70059;42.702;23.312;2024-01-16T12:28:11;9.82;;;8.10;;
80694;SDS011;70059;42.702;23.312;2024-01-16T12:30:48;8.10;;;6.63;;
80694;SDS011;70059;42.702;23.312;2024-01-16T12:33:14;7.05;;;6.30;;
80694;SDS011;70059;42.702;23.312;2024-01-16T12:35:42;8.70;;;7.60;;
80694;SDS011;70059;42.702;23.312;2024-01-16T12:38:12;8.40;;;7.55;;
80694;SDS011;70059;42.702;23.312;2024-01-16T12:40:45;9.20;;;7.45;;
80694;SDS011;70059;42.702;23.312;2024-01-16T12:43:12;7.50;;;6.78;;
80694;SDS011;70059;42.702;23.312;2024-01-16T12:45:40;9.30;;;7.35;;
80694;SDS011;70059;42.702;23.312;2024-01-16T12:48:09;7.93;;;7.13;;
80694;SDS011;70059;42.702;23.312;2024-01-16T12:50:35;12.13;;;7.55;;
80694;SDS011;70059;42.702;23.312;2024-01-16T12:53:09;10.02;;;8.65;;
80694;SDS011;70059;42.702;23.312;2024-01-16T12:55:37;13.27;;;7.20;;
80694;SDS011;70059;42.702;23.312;2024-01-16T12:58:19;8.43;;;7.63;;
80694;SDS011;70059;42.702;23.312;2024-01-16T13:00:54;12.70;;;7.78;;
80694;SDS011;70059;42.702;23.312;2024-01-16T13:03:26;9.68;;;8.77;;
80694;SDS011;70059;42.702;23.312;2024-01-16T13:05:58;8.90;;;7.95;;
80694;SDS011;70059;42.702;23.312;2024-01-16T13:08:26;10.48;;;8.60;;
80694;SDS011;70059;42.702;23.312;2024-01-16T13:11:02;12.00;;;8.32;;
80694;SDS011;70059;42.702;23.312;2024-01-16T13:13:28;8.10;;;7.40;;
80694;SDS011;70059;42.702;23.312;2024-01-16T13:15:54;9.32;;;7.85;;
80694;SDS011;70059;42.702;23.312;2024-01-16T13:18:23;12.40;;;7.78;;
80694;SDS011;70059;42.702;23.312;2024-01-16T13:20:51;10.40;;;8.45;;
80694;SDS011;70059;42.702;23.312;2024-01-16T13:23:25;9.18;;;8.27;;
80694;SDS011;70059;42.702;23.312;2024-01-16T13:25:52;8.80;;;7.90;;
80694;SDS011;70059;42.702;23.312;2024-01-16T13:28:24;12.30;;;7.68;;
80694;SDS011;70059;42.702;23.312;2024-01-16T13:30:50;8.57;;;7.68;;
80694;SDS011;70059;42.702;23.312;2024-01-16T13:33:17;8.45;;;7.53;;
80694;SDS011;70059;42.702;23.312;2024-01-16T13:35:46;9.07;;;8.05;;
80694;SDS011;70059;42.702;23.312;2024-01-16T13:38:12;8.68;;;7.72;;
80694;SDS011;70059;42.702;23.312;2024-01-16T13:40:40;9.23;;;7.88;;
80694;SDS011;70059;42.702;23.312;2024-01-16T13:43:06;8.93;;;8.02;;
80694;SDS011;70059;42.702;23.312;2024-01-16T13:45:32;10.95;;;9.50;;
80694;SDS011;70059;42.702;23.312;2024-01-16T13:48:00;9.90;;;8.18;;
80694;SDS011;70059;42.702;23.312;2024-01-16T13:50:26;9.13;;;7.93;;
80694;SDS011;70059;42.702;23.312;2024-01-16T13:53:01;9.93;;;8.27;;
80694;SDS011;70059;42.702;23.312;2024-01-16T13:55:28;8.77;;;7.72;;
80694;SDS011;70059;42.702;23.312;2024-01-16T13:57:55;9.23;;;8.32;;
80694;SDS011;70059;42.702;23.312;2024-01-16T14:00:22;9.35;;;7.57;;
80694;SDS011;70059;42.702;23.312;2024-01-16T14:02:55;12.25;;;8.40;;
80694;SDS011;70059;42.702;23.312;2024-01-16T14:05:21;17.88;;;8.80;;
80694;SDS011;70059;42.702;23.312;2024-01-16T14:07:48;16.08;;;8.63;;
80694;SDS011;70059;42.702;23.312;2024-01-16T14:10:16;11.90;;;9.05;;
80694;SDS011;70059;42.702;23.312;2024-01-16T14:12:47;8.52;;;7.70;;
80694;SDS011;70059;42.702;23.312;2024-01-16T14:15:17;7.47;;;6.87;;
80694;SDS011;70059;42.702;23.312;2024-01-16T14:17:46;8.43;;;6.93;;
80694;SDS011;70059;42.702;23.312;2024-01-16T14:20:14;7.70;;;7.07;;
80694;SDS011;70059;42.702;23.312;2024-01-16T14:22:41;7.50;;;6.80;;
80694;SDS011;70059;42.702;23.312;2024-01-16T14:25:08;9.13;;;7.68;;
80694;SDS011;70059;42.702;23.312;2024-01-16T14:27:38;9.23;;;8.32;;
80694;SDS011;70059;42.702;23.312;2024-01-16T14:30:05;11.07;;;8.63;;
80694;SDS011;70059;42.702;23.312;2024-01-16T14:32:33;10.05;;;7.93;;
80694;SDS011;70059;42.702;23.312;2024-01-16T14:34:58;9.82;;;8.52;;
80694;SDS011;70059;42.702;23.312;2024-01-16T14:37:24;9.40;;;8.25;;
80694;SDS011;70059;42.702;23.312;2024-01-16T14:39:51;8.80;;;7.68;;
80694;SDS011;70059;42.702;23.312;2024-01-16T14:42:23;9.27;;;8.30;;
80694;SDS011;70059;42.702;23.312;2024-01-16T14:44:49;9.75;;;8.70;;
80694;SDS011;70059;42.702;23.312;2024-01-16T14:47:15;12.18;;;7.65;;
80694;SDS011;70059;42.702;23.312;2024-01-16T14:49:40;9.88;;;8.55;;
80694;SDS011;70059;42.702;23.312;2024-01-16T14:52:06;10.95;;;9.05;;
80694;SDS011;70059;42.702;23.312;2024-01-16T14:54:40;17.92;;;10.70;;
80694;SDS011;70059;42.702;23.312;2024-01-16T14:57:05;11.63;;;9.18;;
80694;SDS011;70059;42.702;23.312;2024-01-16T14:59:32;11.23;;;9.68;;
80694;SDS011;70059;42.702;23.312;2024-01-16T15:01:58;13.27;;;11.52;;
80694;SDS011;70059;42.702;23.312;2024-01-16T15:04:24;18.67;;;11.85;;
80694;SDS011;70059;42.702;23.312;2024-01-16T15:06:49;14.77;;;11.43;;
80694;SDS011;70059;42.702;23.312;2024-01-16T15:09:18;16.02;;;11.00;;
80694;SDS011;70059;42.702;23.312;2024-01-16T15:11:46;11.55;;;9.02;;
80694;SDS011;70059;42.702;23.312;2024-01-16T15:14:12;9.15;;;7.68;;